Time;durP1;ratioP1;P1;durP2;ratioP2;P2;SDS_P1;SDS_P2;PMS_P1;PMS_P2;Temp;Humidity;BMP_temperature;BMP_pressure;BME280_temperature;BME280_humidity;BME280_pressure;Samples;Min_cycle;Max_cycle;Signal;HPM_P1;HPM_P2
2022/02/02 00:00:21;;;;;;;3.88;1.42;;;;;;;;;;5000512;28;20045;-77
2022/02/02 00:02:51;;;;;;;3.33;1.42;;;;;;;;;;5010838;28;20041;-77
2022/02/02 00:07:59;;;;;;;4.28;1.25;;;;;;;;;;4995973;28;20038;-77
2022/02/02 00:13:03;;;;;;;4.68;1.33;;;;;;;;;;5017561;28;20050;-77
2022/02/02 00:20:49;;;;;;;3.28;1.40;;;;;;;;;;4996636;28;20080;-77
2022/02/02 00:23:17;;;;;;;3.08;1.25;;;;;;;;;;5015282;28;20511;-77
2022/02/02 00:25:51;;;;;;;5.00;1.38;;;;;;;;;;4995189;28;20049;-77
2022/02/02 00:28:20;;;;;;;4.00;1.10;;;;;;;;;;4995586;28;20037;-77
2022/02/02 00:30:45;;;;;;;5.45;1.95;;;;;;;;;;4995582;28;20112;-77
2022/02/02 00:35:41;;;;;;;3.42;1.10;;;;;;;;;;5015780;28;20065;-77
2022/02/02 00:38:07;;;;;;;2.65;1.00;;;;;;;;;;4995339;28;20105;-77
2022/02/02 00:40:32;;;;;;;3.50;1.05;;;;;;;;;;4994265;28;20115;-77
2022/02/02 00:42:58;;;;;;;4.20;1.25;;;;;;;;;;4997171;28;20064;-77
2022/02/02 00:45:30;;;;;;;4.50;1.05;;;;;;;;;;5013584;28;20064;-77
2022/02/02 00:47:56;;;;;;;5.13;1.40;;;;;;;;;;5015221;28;20033;-77
2022/02/02 00:50:23;;;;;;;4.85;1.15;;;;;;;;;;4981586;28;20137;-77
2022/02/02 00:52:51;;;;;;;3.05;0.95;;;;;;;;;;4997994;28;20388;-77
2022/02/02 00:55:18;;;;;;;3.38;1.20;;;;;;;;;;5022466;28;20038;-77
2022/02/02 00:57:43;;;;;;;3.15;1.02;;;;;;;;;;4978344;28;20038;-77
2022/02/02 01:00:09;;;;;;;5.20;1.90;;;;;;;;;;5010662;28;20068;-77
2022/02/02 01:02:35;;;;;;;3.55;1.40;;;;;;;;;;4997381;28;20100;-77
2022/02/02 01:05:00;;;;;;;4.85;1.35;;;;;;;;;;4993757;28;20065;-77
2022/02/02 01:08:04;;;;;;;3.53;1.15;;;;;;;;;;4994143;28;20056;-77
2022/02/02 01:10:18;;;;;;;3.88;1.25;;;;;;;;;;4991385;28;20085;-78
2022/02/02 01:18:11;;;;;;;3.95;1.00;;;;;;;;;;5015276;28;20460;-77
2022/02/02 01:20:37;;;;;;;4.93;1.17;;;;;;;;;;5010843;28;20038;-77
2022/02/02 01:28:39;;;;;;;3.50;1.20;;;;;;;;;;5011250;28;20034;-77
2022/02/02 01:31:05;;;;;;;3.33;1.08;;;;;;;;;;5011462;28;20452;-77
2022/02/02 01:33:31;;;;;;;4.30;1.23;;;;;;;;;;4981715;28;20034;-77
2022/02/02 01:35:57;;;;;;;4.35;1.25;;;;;;;;;;5014274;28;20038;-77
2022/02/02 01:38:25;;;;;;;3.67;1.30;;;;;;;;;;4988725;28;20042;-77
2022/02/02 01:40:56;;;;;;;5.50;1.15;;;;;;;;;;5013696;28;20049;-77
2022/02/02 01:43:35;;;;;;;2.97;1.23;;;;;;;;;;5008011;28;20117;-77
2022/02/02 01:46:08;;;;;;;3.75;1.40;;;;;;;;;;4985479;28;20065;-77
2022/02/02 01:48:51;;;;;;;3.35;1.10;;;;;;;;;;4998762;28;20121;-75
2022/02/02 01:54:18;;;;;;;4.10;1.25;;;;;;;;;;4998209;28;20044;-77
2022/02/02 01:56:43;;;;;;;5.00;1.30;;;;;;;;;;5001729;28;20527;-77
2022/02/02 01:59:26;;;;;;;4.35;1.20;;;;;;;;;;4997755;28;20037;-77
2022/02/02 02:01:51;;;;;;;;;;;;;;;;;;5004882;28;20081;-77
2022/02/02 02:04:17;;;;;;;4.63;1.40;;;;;;;;;;4996710;28;19913;-77
2022/02/02 02:06:42;;;;;;;4.95;1.58;;;;;;;;;;5013768;28;20037;-77
2022/02/02 02:09:08;;;;;;;3.88;1.10;;;;;;;;;;5003790;28;20469;-77
2022/02/02 02:11:36;;;;;;;4.30;1.45;;;;;;;;;;4996782;28;20077;-78
2022/02/02 02:14:38;;;;;;;5.72;1.60;;;;;;;;;;5001569;28;20037;-79
2022/02/02 02:16:57;;;;;;;5.25;1.27;;;;;;;;;;5020339;28;20065;-78
2022/02/02 02:19:23;;;;;;;5.82;1.52;;;;;;;;;;5000556;28;20545;-77
2022/02/02 02:21:51;;;;;;;4.63;1.05;;;;;;;;;;5000855;28;20503;-77
2022/02/02 02:24:17;;;;;;;4.32;1.13;;;;;;;;;;5032650;28;20076;-77
2022/02/02 02:26:43;;;;;;;4.38;1.25;;;;;;;;;;5013141;28;20058;-77
2022/02/02 02:31:50;;;;;;;4.15;1.15;;;;;;;;;;4997682;28;20044;-77
2022/02/02 02:34:29;;;;;;;4.80;1.20;;;;;;;;;;5001679;28;20029;-78
2022/02/02 02:56:02;;;;;;;5.75;0.98;;;;;;;;;;4999645;28;20050;-77
2022/02/02 03:01:20;;;;;;;5.43;2.40;;;;;;;;;;4996672;28;20512;-77
2022/02/02 03:31:36;;;;;;;6.60;3.10;;;;;;;;;;4998321;28;20125;-77
2022/02/02 03:58:17;;;;;;;5.05;2.17;;;;;;;;;;4995547;28;20034;-77
2022/02/02 04:01:46;;;;;;;7.28;2.70;;;;;;;;;;4997820;28;20061;-77
2022/02/02 04:03:58;;;;;;;4.93;2.25;;;;;;;;;;4984058;28;20042;-77
2022/02/02 04:06:25;;;;;;;4.43;2.00;;;;;;;;;;5018721;28;20037;-77
2022/02/02 04:08:51;;;;;;;5.55;2.17;;;;;;;;;;4994739;28;20112;-77
2022/02/02 04:52:18;;;;;;;7.20;1.67;;;;;;;;;;5016793;28;20458;-77
2022/02/02 04:59:42;;;;;;;5.05;2.08;;;;;;;;;;4995080;28;20045;-77
2022/02/02 05:05:41;;;;;;;5.40;2.03;;;;;;;;;;5005366;28;20045;-77
2022/02/02 05:07:43;;;;;;;4.38;1.75;;;;;;;;;;5016410;28;20065;-77
2022/02/02 05:10:21;;;;;;;3.95;1.52;;;;;;;;;;4986481;28;20467;-77
2022/02/02 05:18:01;;;;;;;5.00;2.17;;;;;;;;;;4999270;28;20038;-77
2022/02/02 05:44:52;;;;;;;3.10;1.42;;;;;;;;;;4998344;28;20505;-77
2022/02/02 05:50:21;;;;;;;2.75;1.50;;;;;;;;;;5000633;28;20116;-77
2022/02/02 05:52:47;;;;;;;3.75;1.58;;;;;;;;;;5000524;28;20037;-77
2022/02/02 05:55:13;;;;;;;4.82;1.73;;;;;;;;;;4997774;28;20052;-77
2022/02/02 05:57:40;;;;;;;5.47;1.60;;;;;;;;;;4997731;28;20030;-77
2022/02/02 06:00:06;;;;;;;2.97;1.10;;;;;;;;;;5006424;28;20045;-77
2022/02/02 06:02:33;;;;;;;3.45;1.35;;;;;;;;;;5000196;28;20106;-75
2022/02/02 06:04:58;;;;;;;3.22;1.05;;;;;;;;;;5000573;28;20034;-75
2022/02/02 06:07:24;;;;;;;3.90;1.67;;;;;;;;;;5033359;28;20559;-75
2022/02/02 06:09:50;;;;;;;6.75;1.40;;;;;;;;;;5000685;28;20037;-75
2022/02/02 06:12:17;;;;;;;5.43;1.85;;;;;;;;;;5000540;28;20064;-75
2022/02/02 06:14:42;;;;;;;2.80;1.40;;;;;;;;;;5016789;28;20079;-75
2022/02/02 06:17:09;;;;;;;4.30;1.48;;;;;;;;;;4999890;28;20065;-75
2022/02/02 06:19:35;;;;;;;4.13;1.20;;;;;;;;;;5016896;28;20507;-76
2022/02/02 06:22:16;;;;;;;4.63;1.23;;;;;;;;;;5000337;28;20037;-74
2022/02/02 06:25:04;;;;;;;5.68;1.67;;;;;;;;;;5014816;28;20496;-74
2022/02/02 06:27:29;;;;;;;4.80;1.50;;;;;;;;;;5029542;28;20041;-74
2022/02/02 06:30:00;;;;;;;3.78;1.50;;;;;;;;;;5011619;28;20056;-74
2022/02/02 06:32:28;;;;;;;5.22;1.30;;;;;;;;;;5012897;28;20037;-74
2022/02/02 06:34:56;;;;;;;6.05;1.88;;;;;;;;;;5005271;28;20036;-74
2022/02/02 06:37:21;;;;;;;5.63;1.10;;;;;;;;;;5016402;28;20053;-74
2022/02/02 06:39:50;;;;;;;8.35;1.83;;;;;;;;;;5032762;28;20033;-74
2022/02/02 06:42:15;;;;;;;8.40;1.90;;;;;;;;;;5000151;28;20050;-73
2022/02/02 06:44:42;;;;;;;8.43;1.80;;;;;;;;;;4996934;28;20521;-74
2022/02/02 06:47:07;;;;;;;7.55;2.50;;;;;;;;;;5026036;28;20037;-74
2022/02/02 06:49:34;;;;;;;5.75;1.30;;;;;;;;;;5016274;28;20052;-74
2022/02/02 06:52:09;;;;;;;6.10;1.48;;;;;;;;;;4997617;28;20041;-74
2022/02/02 06:54:48;;;;;;;8.55;1.40;;;;;;;;;;4997867;28;20041;-74
2022/02/02 06:57:21;;;;;;;7.65;1.70;;;;;;;;;;4982784;28;20064;-73
2022/02/02 07:12:55;;;;;;;5.78;1.67;;;;;;;;;;5031920;28;20048;-74
2022/02/02 07:15:32;;;;;;;28.45;3.00;;;;;;;;;;5016977;28;20037;-74
2022/02/02 07:20:50;;;;;;;5.07;1.50;;;;;;;;;;5009460;28;20034;-74
2022/02/02 07:31:04;;;;;;;7.75;1.88;;;;;;;;;;4995685;28;20112;-75
2022/02/02 07:33:35;;;;;;;7.97;1.58;;;;;;;;;;5014350;28;20040;-75
2022/02/02 07:36:15;;;;;;;6.68;1.85;;;;;;;;;;5012953;28;20403;-78
2022/02/02 07:39:07;;;;;;;8.40;2.00;;;;;;;;;;4986592;28;20033;-78
2022/02/02 07:41:33;;;;;;;7.82;1.70;;;;;;;;;;5022007;28;20068;-78
2022/02/02 07:44:06;;;;;;;6.65;1.55;;;;;;;;;;4994834;28;20121;-78
2022/02/02 07:46:32;;;;;;;;;;;;;;;;;;4994205;28;20133;-78
2022/02/02 07:48:57;;;;;;;7.75;1.63;;;;;;;;;;4996273;28;20407;-78
2022/02/02 07:51:23;;;;;;;9.18;1.60;;;;;;;;;;4995255;28;20048;-78
2022/02/02 07:53:51;;;;;;;6.85;2.67;;;;;;;;;;4995546;28;20076;-78
2022/02/02 07:56:30;;;;;;;12.55;2.38;;;;;;;;;;4995317;28;20040;-78
2022/02/02 07:59:18;;;;;;;5.95;1.52;;;;;;;;;;5005010;28;20108;-78
2022/02/02 08:01:45;;;;;;;8.50;2.28;;;;;;;;;;4998702;28;20033;-78
2022/02/02 08:04:12;;;;;;;8.05;1.55;;;;;;;;;;4978782;28;20444;-78
2022/02/02 08:06:40;;;;;;;8.75;2.08;;;;;;;;;;4979370;28;20064;-78
2022/02/02 08:09:07;;;;;;;6.70;1.45;;;;;;;;;;4995523;28;20030;-78
2022/02/02 08:11:35;;;;;;;4.50;1.17;;;;;;;;;;4995386;28;20117;-78
2022/02/02 08:14:02;;;;;;;6.85;1.90;;;;;;;;;;4975903;28;20439;-78
2022/02/02 08:16:29;;;;;;;6.30;1.70;;;;;;;;;;4992303;28;20550;-78
2022/02/02 08:18:55;;;;;;;5.47;1.40;;;;;;;;;;5013869;28;20418;-78
2022/02/02 08:21:22;;;;;;;9.65;1.92;;;;;;;;;;4998532;28;20130;-78
2022/02/02 08:23:48;;;;;;;3.80;1.20;;;;;;;;;;5014427;28;20479;-78
2022/02/02 08:26:15;;;;;;;5.75;1.27;;;;;;;;;;4998277;28;20041;-78
2022/02/02 08:28:42;;;;;;;4.72;1.77;;;;;;;;;;4998244;28;20037;-78
2022/02/02 08:31:07;;;;;;;5.82;1.60;;;;;;;;;;5012520;28;20551;-78
2022/02/02 08:33:38;;;;;;;6.03;1.17;;;;;;;;;;5010563;28;20130;-78
2022/02/02 08:36:06;;;;;;;5.03;1.40;;;;;;;;;;4996875;28;20061;-78
2022/02/02 08:38:44;;;;;;;5.38;1.38;;;;;;;;;;5006626;28;20033;-78
2022/02/02 08:44:14;;;;;;;4.63;1.55;;;;;;;;;;5010063;28;20415;-77
2022/02/02 08:46:46;;;;;;;4.47;1.40;;;;;;;;;;5023153;28;20042;-78
2022/02/02 08:49:13;;;;;;;3.33;1.23;;;;;;;;;;4995384;28;20060;-78
2022/02/02 08:51:42;;;;;;;4.15;1.40;;;;;;;;;;5011474;28;20100;-78
2022/02/02 08:59:21;;;;;;;4.18;1.30;;;;;;;;;;5013021;28;20132;-78
2022/02/02 09:01:49;;;;;;;3.65;1.35;;;;;;;;;;4998521;28;20073;-78
2022/02/02 09:06:58;;;;;;;4.10;1.23;;;;;;;;;;5004022;28;20116;-78
2022/02/02 09:09:42;;;;;;;5.15;1.30;;;;;;;;;;5014215;28;20481;-78
2022/02/02 09:25:17;;;;;;;10.15;2.17;;;;;;;;;;5030158;28;20035;-77
2022/02/02 09:35:37;;;;;;;5.35;1.55;;;;;;;;;;5017509;28;20493;-76
2022/02/02 09:38:03;;;;;;;4.18;1.17;;;;;;;;;;4988555;28;20069;-76
2022/02/02 09:42:56;;;;;;;4.60;1.38;;;;;;;;;;5012945;28;20061;-76
2022/02/02 09:45:23;;;;;;;5.47;1.40;;;;;;;;;;4999525;28;20454;-76
2022/02/02 09:47:58;;;;;;;4.70;1.50;;;;;;;;;;4991649;28;20029;-73
2022/02/02 09:50:32;;;;;;;4.00;0.90;;;;;;;;;;4991925;28;20033;-78
2022/02/02 09:53:01;;;;;;;5.05;1.20;;;;;;;;;;4992350;28;20045;-79
2022/02/02 10:01:04;;;;;;;6.07;1.55;;;;;;;;;;5013785;28;20453;-78
2022/02/02 10:03:47;;;;;;;6.20;1.20;;;;;;;;;;4991865;28;20033;-78
2022/02/02 10:06:20;;;;;;;5.50;1.70;;;;;;;;;;4996147;28;20041;-78
2022/02/02 10:14:23;;;;;;;7.30;1.95;;;;;;;;;;5017931;28;20503;-78
2022/02/02 10:16:50;;;;;;;9.40;3.30;;;;;;;;;;5019304;28;20108;-78
2022/02/02 10:19:16;;;;;;;13.43;8.90;;;;;;;;;;4996550;28;20072;-78
2022/02/02 10:21:42;;;;;;;15.32;9.57;;;;;;;;;;4982310;28;20030;-77
2022/02/02 10:24:08;;;;;;;15.50;7.93;;;;;;;;;;4995396;28;20061;-78
2022/02/02 10:26:33;;;;;;;10.85;6.80;;;;;;;;;;4984951;28;20104;-78
2022/02/02 10:29:07;;;;;;;11.15;6.65;;;;;;;;;;4980578;28;20038;-77
2022/02/02 10:31:47;;;;;;;12.32;5.97;;;;;;;;;;4980975;28;20069;-78
2022/02/02 10:34:17;;;;;;;10.68;5.68;;;;;;;;;;5007493;28;20029;-77
2022/02/02 10:36:43;;;;;;;9.57;5.53;;;;;;;;;;4997333;28;20038;-78
2022/02/02 10:39:13;;;;;;;9.52;5.25;;;;;;;;;;4995367;28;20097;-78
2022/02/02 10:41:43;;;;;;;10.85;5.75;;;;;;;;;;5008231;28;20048;-77
2022/02/02 10:44:18;;;;;;;15.55;5.40;;;;;;;;;;5012499;28;20034;-76
2022/02/02 10:46:58;;;;;;;13.95;5.75;;;;;;;;;;5009502;28;20063;-76
2022/02/02 10:59:56;;;;;;;120.88;78.25;;;;;;;;;;5017337;28;20030;-76
2022/02/02 11:07:54;;;;;;;110.97;66.00;;;;;;;;;;5013320;28;20042;-78
2022/02/02 11:10:19;;;;;;;91.80;57.10;;;;;;;;;;5003015;28;20041;-78
2022/02/02 11:12:46;;;;;;;86.05;54.83;;;;;;;;;;5009719;28;20436;-78
2022/02/02 11:15:30;;;;;;;79.88;50.78;;;;;;;;;;4995842;28;20042;-78
2022/02/02 11:18:04;;;;;;;90.47;50.33;;;;;;;;;;4998395;28;20116;-78
2022/02/02 11:20:29;;;;;;;75.53;46.92;;;;;;;;;;4993086;28;20044;-78
2022/02/02 11:22:55;;;;;;;72.45;42.60;;;;;;;;;;4994425;28;20102;-78
2022/02/02 11:25:25;;;;;;;62.58;38.63;;;;;;;;;;5010838;28;20680;-78
2022/02/02 11:27:52;;;;;;;66.15;41.10;;;;;;;;;;5011411;28;20087;-78
2022/02/02 11:30:23;;;;;;;58.00;37.03;;;;;;;;;;4998365;28;20134;-78
2022/02/02 11:32:56;;;;;;;53.05;35.38;;;;;;;;;;5023553;28;20034;-78
2022/02/02 11:35:25;;;;;;;;;;;;;;;;;;5002009;28;20038;-78
2022/02/02 11:37:58;;;;;;;51.42;31.92;;;;;;;;;;4995715;28;19925;-78
2022/02/02 11:40:24;;;;;;;47.17;28.55;;;;;;;;;;5004036;28;20431;-78
2022/02/02 11:45:52;;;;;;;48.75;30.20;;;;;;;;;;5004481;28;20056;-80
2022/02/02 11:48:59;;;;;;;47.92;31.35;;;;;;;;;;4995666;28;20056;-80
2022/02/02 11:51:45;;;;;;;49.40;29.60;;;;;;;;;;5018568;28;20041;-83
2022/02/02 11:54:11;;;;;;;42.35;28.67;;;;;;;;;;4996684;28;20117;-80
2022/02/02 11:57:16;;;;;;;43.08;27.15;;;;;;;;;;4995651;28;20049;-80
2022/02/02 11:59:49;;;;;;;35.13;22.92;;;;;;;;;;4999800;28;20048;-80
2022/02/02 12:02:27;;;;;;;35.28;22.85;;;;;;;;;;4998665;28;20095;-80
2022/02/02 12:05:03;;;;;;;31.35;19.30;;;;;;;;;;4988179;28;20539;-81
2022/02/02 12:07:54;;;;;;;29.33;17.60;;;;;;;;;;4982883;28;20025;-85
2022/02/02 12:10:59;;;;;;;25.08;16.35;;;;;;;;;;5016233;28;20121;-79
2022/02/02 12:27:55;;;;;;;32.60;21.20;;;;;;;;;;4997408;28;20485;-79
2022/02/02 12:56:56;;;;;;;43.15;30.85;;;;;;;;;;4995361;28;20029;-77
2022/02/02 12:59:43;;;;;;;39.08;29.90;;;;;;;;;;4997738;28;20049;-78
2022/02/02 13:02:13;;;;;;;36.10;26.92;;;;;;;;;;4995646;28;20381;-78
2022/02/02 13:04:39;;;;;;;34.88;25.27;;;;;;;;;;4993773;28;20109;-78
2022/02/02 13:07:10;;;;;;;33.30;22.75;;;;;;;;;;4990054;28;20091;-77
2022/02/02 13:09:36;;;;;;;37.40;23.33;;;;;;;;;;4978465;28;20408;-78
2022/02/02 13:12:18;;;;;;;33.45;22.38;;;;;;;;;;4977923;28;20041;-77
2022/02/02 13:15:04;;;;;;;;;;;;;;;;;;5011077;28;20038;-77
2022/02/02 13:17:45;;;;;;;28.15;20.23;;;;;;;;;;5010220;28;19914;-78
2022/02/02 13:20:13;;;;;;;29.23;19.25;;;;;;;;;;5012991;28;20080;-75
2022/02/02 13:22:43;;;;;;;34.42;19.00;;;;;;;;;;4998529;28;20120;-77
2022/02/02 13:25:20;;;;;;;25.52;18.33;;;;;;;;;;5015360;28;20092;-76
2022/02/02 13:27:47;;;;;;;26.25;16.05;;;;;;;;;;5021063;28;20410;-76
2022/02/02 13:30:36;;;;;;;25.70;17.13;;;;;;;;;;4982857;28;20136;-77
2022/02/02 13:33:10;;;;;;;27.13;15.93;;;;;;;;;;5021915;28;20135;-77
2022/02/02 13:35:43;;;;;;;20.65;14.32;;;;;;;;;;5003158;28;20034;-76
2022/02/02 13:38:34;;;;;;;23.75;15.25;;;;;;;;;;4999727;28;20095;-77
2022/02/02 13:46:28;;;;;;;22.30;11.93;;;;;;;;;;5013884;28;20587;-77
2022/02/02 13:54:32;;;;;;;21.15;12.23;;;;;;;;;;5015349;28;20111;-76
2022/02/02 13:57:10;;;;;;;21.80;11.50;;;;;;;;;;5005335;28;20025;-76
2022/02/02 14:31:24;;;;;;;15.80;8.77;;;;;;;;;;4999234;28;20034;-77
2022/02/02 14:33:54;;;;;;;14.48;9.18;;;;;;;;;;4980648;28;20037;-78
2022/02/02 14:36:26;;;;;;;12.63;7.78;;;;;;;;;;4980892;28;20038;-77
2022/02/02 14:41:34;;;;;;;13.68;7.32;;;;;;;;;;5029567;28;20288;-77
2022/02/02 14:49:17;;;;;;;13.32;7.68;;;;;;;;;;4997730;28;20400;-77
2022/02/02 15:05:38;;;;;;;883.88;613.83;;;;;;;;;;4986635;28;20873;-77
2022/02/02 15:33:06;;;;;;;690.88;516.83;;;;;;;;;;4982892;28;20137;-77
2022/02/02 15:35:33;;;;;;;648.83;484.48;;;;;;;;;;4997267;28;20058;-76
2022/02/02 15:38:03;;;;;;;598.83;447.27;;;;;;;;;;4998003;28;20108;-76
2022/02/02 15:40:35;;;;;;;535.35;388.77;;;;;;;;;;5007831;28;20500;-76
2022/02/02 16:04:32;;;;;;;395.33;264.95;;;;;;;;;;5014709;28;20509;-78
2022/02/02 16:07:02;;;;;;;387.58;268.67;;;;;;;;;;5015449;28;20041;-78
2022/02/02 16:09:35;;;;;;;376.85;256.83;;;;;;;;;;4999581;28;20034;-78
2022/02/02 16:12:07;;;;;;;344.52;245.90;;;;;;;;;;5009039;28;20050;-78
2022/02/02 16:14:52;;;;;;;331.58;228.57;;;;;;;;;;4996220;28;20038;-78
2022/02/02 16:36:08;;;;;;;268.25;187.38;;;;;;;;;;4999872;28;20501;-78
2022/02/02 16:38:35;;;;;;;258.40;180.30;;;;;;;;;;4995394;28;20045;-78
2022/02/02 16:41:05;;;;;;;242.55;172.93;;;;;;;;;;4978523;28;20045;-79
2022/02/02 16:43:30;;;;;;;257.75;172.25;;;;;;;;;;5013844;28;20033;-78
2022/02/02 16:45:56;;;;;;;236.77;167.38;;;;;;;;;;4997980;28;20487;-78
2022/02/02 16:48:22;;;;;;;240.63;165.57;;;;;;;;;;4997792;28;20033;-78
2022/02/02 16:50:51;;;;;;;226.23;156.30;;;;;;;;;;4981576;28;20037;-78
2022/02/02 17:31:32;;;;;;;159.30;112.68;;;;;;;;;;5030434;28;20030;-75
2022/02/02 17:34:04;;;;;;;151.82;109.40;;;;;;;;;;5013256;28;20034;-75
2022/02/02 17:36:38;;;;;;;151.65;106.82;;;;;;;;;;5011142;28;20068;-75
2022/02/02 17:39:10;;;;;;;148.77;105.38;;;;;;;;;;4995266;28;20451;-75
2022/02/02 17:44:20;;;;;;;141.98;102.78;;;;;;;;;;5013701;28;20041;-75
2022/02/02 18:21:17;;;;;;;100.20;71.88;;;;;;;;;;5017951;28;20065;-75
2022/02/02 18:26:27;;;;;;;96.60;68.10;;;;;;;;;;5018355;28;20504;-75
2022/02/02 18:34:00;;;;;;;93.60;66.75;;;;;;;;;;5016110;28;20037;-76
2022/02/02 18:36:43;;;;;;;85.72;60.70;;;;;;;;;;4998372;28;20045;-76
2022/02/02 19:05:59;;;;;;;75.95;52.90;;;;;;;;;;5032389;28;20511;-76
2022/02/02 19:55:12;;;;;;;51.42;37.30;;;;;;;;;;5015155;28;20067;-78
2022/02/02 19:56:53;;;;;;;47.85;34.63;;;;;;;;;;5018916;28;20037;-78
2022/02/02 20:04:56;;;;;;;42.45;31.00;;;;;;;;;;5016908;28;20029;-78
2022/02/02 20:07:43;;;;;;;45.03;31.98;;;;;;;;;;5016492;28;20049;-79
2022/02/02 20:12:40;;;;;;;35.97;28.33;;;;;;;;;;5012059;28;20479;-80
2022/02/02 20:15:06;;;;;;;41.90;29.90;;;;;;;;;;4997608;28;20492;-78
2022/02/02 20:17:33;;;;;;;41.90;29.77;;;;;;;;;;4980524;28;20107;-78
2022/02/02 20:20:10;;;;;;;37.28;27.10;;;;;;;;;;4998959;28;20041;-78
2022/02/02 20:22:36;;;;;;;38.08;27.98;;;;;;;;;;5001613;28;20045;-79
2022/02/02 20:25:03;;;;;;;38.65;28.90;;;;;;;;;;4998343;28;20025;-79
2022/02/02 20:27:32;;;;;;;37.25;26.70;;;;;;;;;;4998632;28;20033;-79
2022/02/02 20:29:57;;;;;;;38.20;28.65;;;;;;;;;;4981975;28;20103;-79
2022/02/02 20:32:23;;;;;;;35.90;26.70;;;;;;;;;;4997987;28;20450;-79
2022/02/02 20:34:48;;;;;;;41.20;28.05;;;;;;;;;;4978236;28;20626;-79
2022/02/02 20:37:15;;;;;;;37.47;26.33;;;;;;;;;;4961901;28;20034;-79
2022/02/02 20:39:52;;;;;;;32.17;25.23;;;;;;;;;;4996118;28;20107;-77
2022/02/02 20:42:26;;;;;;;36.28;26.73;;;;;;;;;;4989755;28;20100;-79
2022/02/02 21:04:20;;;;;;;33.10;22.35;;;;;;;;;;4996308;28;20116;-78
2022/02/02 21:07:03;;;;;;;29.25;22.05;;;;;;;;;;4982374;28;20132;-80
2022/02/02 21:13:41;;;;;;;29.85;21.25;;;;;;;;;;4994223;28;20068;-79
2022/02/02 21:14:46;;;;;;;31.42;21.38;;;;;;;;;;5024282;28;20034;-79
2022/02/02 21:17:21;;;;;;;28.02;21.90;;;;;;;;;;4998406;28;20055;-78
2022/02/02 21:22:14;;;;;;;32.47;20.83;;;;;;;;;;5014128;28;20535;-79
2022/02/02 21:29:39;;;;;;;27.02;19.40;;;;;;;;;;5010325;28;20161;-80
2022/02/02 21:32:05;;;;;;;24.27;17.95;;;;;;;;;;5013251;28;20511;-79
2022/02/02 21:34:31;;;;;;;24.80;18.10;;;;;;;;;;4993125;28;20066;-80
2022/02/02 21:37:01;;;;;;;23.50;17.40;;;;;;;;;;4978068;28;20030;-80
2022/02/02 21:39:29;;;;;;;23.08;16.67;;;;;;;;;;4981738;28;20125;-79
2022/02/02 21:41:54;;;;;;;22.10;15.70;;;;;;;;;;5007043;28;20157;-79
2022/02/02 21:44:20;;;;;;;23.15;16.23;;;;;;;;;;4992864;28;20840;-79
2022/02/02 21:46:46;;;;;;;21.02;16.45;;;;;;;;;;4994749;28;20121;-79
2022/02/02 21:49:17;;;;;;;19.30;16.05;;;;;;;;;;4991013;28;20045;-79
2022/02/02 21:51:55;;;;;;;20.85;15.18;;;;;;;;;;4998431;28;20160;-79
2022/02/02 21:54:21;;;;;;;24.77;15.70;;;;;;;;;;4998916;28;20067;-79
2022/02/02 21:56:46;;;;;;;19.73;14.32;;;;;;;;;;4997141;28;20064;-79
2022/02/02 21:59:12;;;;;;;23.85;15.63;;;;;;;;;;5000446;28;20112;-80
2022/02/02 22:01:37;;;;;;;20.67;14.55;;;;;;;;;;5001085;28;20104;-79
2022/02/02 22:04:03;;;;;;;19.33;13.93;;;;;;;;;;5000132;28;20047;-79
2022/02/02 22:06:29;;;;;;;19.17;14.30;;;;;;;;;;5000782;28;20025;-80
2022/02/02 22:08:55;;;;;;;19.20;13.80;;;;;;;;;;4996919;28;20046;-79
2022/02/02 22:11:20;;;;;;;19.92;14.43;;;;;;;;;;4981361;28;20056;-79
2022/02/02 22:13:56;;;;;;;18.15;13.10;;;;;;;;;;4980587;28;20046;-79
2022/02/02 22:16:22;;;;;;;19.80;12.55;;;;;;;;;;4982395;28;20062;-79
2022/02/02 22:18:49;;;;;;;17.70;13.48;;;;;;;;;;4997239;28;20042;-79
2022/02/02 22:21:15;;;;;;;16.40;12.43;;;;;;;;;;4997387;28;20040;-80
2022/02/02 22:23:41;;;;;;;19.27;12.07;;;;;;;;;;5010880;28;20042;-79
2022/02/02 22:26:06;;;;;;;16.70;11.55;;;;;;;;;;5000149;28;20408;-80
2022/02/02 22:28:32;;;;;;;15.85;11.88;;;;;;;;;;4999519;28;20036;-79
2022/02/02 22:30:57;;;;;;;17.30;12.40;;;;;;;;;;5017023;28;20104;-80
2022/02/02 22:33:23;;;;;;;16.08;12.40;;;;;;;;;;4983728;28;20107;-80
2022/02/02 22:35:48;;;;;;;16.63;11.95;;;;;;;;;;5012477;28;20113;-80
2022/02/02 22:38:14;;;;;;;17.33;11.95;;;;;;;;;;4980620;28;20048;-80
2022/02/02 22:40:40;;;;;;;16.20;11.63;;;;;;;;;;5012566;28;20085;-79
2022/02/02 22:43:07;;;;;;;13.60;11.07;;;;;;;;;;5018980;28;20125;-79
2022/02/02 22:45:33;;;;;;;15.00;10.02;;;;;;;;;;5008841;28;20100;-79
2022/02/02 22:47:59;;;;;;;13.57;10.52;;;;;;;;;;4999999;28;20476;-78
2022/02/02 22:50:24;;;;;;;14.02;10.65;;;;;;;;;;4989441;28;20034;-78
2022/02/02 22:52:54;;;;;;;14.10;10.82;;;;;;;;;;5009686;28;20563;-78
2022/02/02 22:55:20;;;;;;;15.25;10.68;;;;;;;;;;5008607;28;20420;-79
2022/02/02 22:57:45;;;;;;;13.35;9.98;;;;;;;;;;4996059;28;20041;-79
2022/02/02 23:00:14;;;;;;;13.23;9.50;;;;;;;;;;5012601;28;20044;-79
2022/02/02 23:05:09;;;;;;;11.65;9.50;;;;;;;;;;5002442;28;20116;-78
2022/02/02 23:07:34;;;;;;;13.77;8.55;;;;;;;;;;4996906;28;20416;-78
2022/02/02 23:10:00;;;;;;;13.68;8.95;;;;;;;;;;4979687;28;20064;-78
2022/02/02 23:12:28;;;;;;;11.00;9.13;;;;;;;;;;5005013;28;20049;-78
2022/02/02 23:14:55;;;;;;;13.55;10.10;;;;;;;;;;4996471;28;20037;-79
2022/02/02 23:17:22;;;;;;;11.38;8.43;;;;;;;;;;4982586;28;20037;-78
2022/02/02 23:19:50;;;;;;;12.15;9.15;;;;;;;;;;4996606;28;20108;-78
2022/02/02 23:22:17;;;;;;;12.10;8.35;;;;;;;;;;5012834;28;20037;-79
2022/02/02 23:24:45;;;;;;;9.80;8.48;;;;;;;;;;4996452;28;20500;-78
2022/02/02 23:27:11;;;;;;;9.77;7.38;;;;;;;;;;4995508;28;20096;-79
2022/02/02 23:29:38;;;;;;;12.68;8.60;;;;;;;;;;4995121;28;20033;-78
2022/02/02 23:32:04;;;;;;;11.35;8.63;;;;;;;;;;4995452;28;20436;-78
2022/02/02 23:34:30;;;;;;;11.07;8.27;;;;;;;;;;4980785;28;20036;-78
2022/02/02 23:36:55;;;;;;;10.30;7.65;;;;;;;;;;4979246;28;20519;-78
2022/02/02 23:39:21;;;;;;;10.85;7.65;;;;;;;;;;5012702;28;20183;-78
2022/02/02 23:44:22;;;;;;;9.43;7.32;;;;;;;;;;5014853;28;20033;-78
2022/02/02 23:46:49;;;;;;;10.15;7.22;;;;;;;;;;4999026;28;20030;-78
2022/02/02 23:49:20;;;;;;;9.65;6.90;;;;;;;;;;4999111;28;20045;-78
2022/02/02 23:51:47;;;;;;;11.40;6.97;;;;;;;;;;5000404;28;20046;-78
2022/02/02 23:54:12;;;;;;;11.70;7.40;;;;;;;;;;4998545;28;20087;-78
2022/02/02 23:59:21;;;;;;;9.80;6.38;;;;;;;;;;5015222;28;20025;-78
